sensor_id;sensor_type;location;lat;lon;timestamp;pressure;altitude;pressure_sealevel;temperature;humidity
47374;BME280;33123;50.118;10.272;2023-02-28T00:01:47;98658.09;;;0.53;57.35
47374;BME280;33123;50.118;10.272;2023-02-28T00:04:14;98649.81;;;0.49;58.26
47374;BME280;33123;50.118;10.272;2023-02-28T00:06:42;98650.44;;;0.43;59.06
47374;BME280;33123;50.118;10.272;2023-02-28T00:09:08;98650.13;;;0.46;58.31
47374;BME280;33123;50.118;10.272;2023-02-28T00:11:35;98650.44;;;0.43;58.70
47374;BME280;33123;50.118;10.272;2023-02-28T00:14:03;98651.56;;;0.41;59.08
47374;BME280;33123;50.118;10.272;2023-02-28T00:16:29;98652.56;;;0.40;58.73
47374;BME280;33123;50.118;10.272;2023-02-28T00:18:56;98649.28;;;0.38;58.29
47374;BME280;33123;50.118;10.272;2023-02-28T00:21:23;98654.63;;;0.36;59.34
47374;BME280;33123;50.118;10.272;2023-02-28T00:23:51;98649.75;;;0.33;58.81
47374;BME280;33123;50.118;10.272;2023-02-28T00:26:17;98646.50;;;0.31;58.30
47374;BME280;33123;50.118;10.272;2023-02-28T00:28:44;98652.03;;;0.28;59.05
47374;BME280;33123;50.118;10.272;2023-02-28T00:31:10;98641.44;;;0.21;58.87
47374;BME280;33123;50.118;10.272;2023-02-28T00:33:37;98647.78;;;0.19;59.09
47374;BME280;33123;50.118;10.272;2023-02-28T00:36:35;98657.31;;;0.18;59.46
47374;BME280;33123;50.118;10.272;2023-02-28T00:39:03;98648.56;;;0.11;58.87
47374;BME280;33123;50.118;10.272;2023-02-28T00:41:30;98649.84;;;0.07;59.72
47374;BME280;33123;50.118;10.272;2023-02-28T00:43:56;98648.69;;;0.10;58.70
47374;BME280;33123;50.118;10.272;2023-02-28T00:46:23;98652.91;;;0.11;58.94
47374;BME280;33123;50.118;10.272;2023-02-28T00:48:50;98658.25;;;0.09;58.35
47374;BME280;33123;50.118;10.272;2023-02-28T00:51:16;98654.84;;;0.09;59.01
47374;BME280;33123;50.118;10.272;2023-02-28T00:53:43;98651.00;;;0.13;58.58
47374;BME280;33123;50.118;10.272;2023-02-28T00:56:11;98652.78;;;0.12;58.23
47374;BME280;33123;50.118;10.272;2023-02-28T00:58:38;98652.25;;;0.09;58.12
47374;BME280;33123;50.118;10.272;2023-02-28T01:01:05;98650.63;;;0.08;58.02
47374;BME280;33123;50.118;10.272;2023-02-28T01:03:32;98646.56;;;0.05;58.93
47374;BME280;33123;50.118;10.272;2023-02-28T01:05:59;98645.09;;;0.03;58.78
47374;BME280;33123;50.118;10.272;2023-02-28T01:08:26;98650.75;;;-0.02;59.20
47374;BME280;33123;50.118;10.272;2023-02-28T01:10:52;98636.63;;;-0.08;59.31
47374;BME280;33123;50.118;10.272;2023-02-28T01:13:20;98653.69;;;0.03;58.72
47374;BME280;33123;50.118;10.272;2023-02-28T01:15:50;98652.53;;;-0.03;58.51
47374;BME280;33123;50.118;10.272;2023-02-28T01:18:18;98648.00;;;-0.01;59.27
47374;BME280;33123;50.118;10.272;2023-02-28T01:20:44;98654.03;;;0.00;59.10
47374;BME280;33123;50.118;10.272;2023-02-28T01:23:11;98650.13;;;0.04;58.98
47374;BME280;33123;50.118;10.272;2023-02-28T01:25:38;98645.75;;;0.05;59.34
47374;BME280;33123;50.118;10.272;2023-02-28T01:28:05;98649.03;;;0.07;58.56
47374;BME280;33123;50.118;10.272;2023-02-28T01:30:33;98649.84;;;0.07;58.38
47374;BME280;33123;50.118;10.272;2023-02-28T01:33:01;98651.44;;;0.08;58.39
47374;BME280;33123;50.118;10.272;2023-02-28T01:35:27;98643.69;;;0.08;59.01
47374;BME280;33123;50.118;10.272;2023-02-28T01:37:54;98643.50;;;0.10;58.12
47374;BME280;33123;50.118;10.272;2023-02-28T01:40:20;98641.88;;;0.09;58.12
47374;BME280;33123;50.118;10.272;2023-02-28T01:42:48;98640.28;;;0.08;57.87
47374;BME280;33123;50.118;10.272;2023-02-28T01:45:20;98636.88;;;0.07;58.22
47374;BME280;33123;50.118;10.272;2023-02-28T01:47:54;98626.81;;;0.04;58.31
47374;BME280;33123;50.118;10.272;2023-02-28T01:50:24;98622.59;;;0.03;58.26
47374;BME280;33123;50.118;10.272;2023-02-28T01:52:54;98623.72;;;0.01;58.28
47374;BME280;33123;50.118;10.272;2023-02-28T01:55:23;98624.84;;;-0.02;58.11
47374;BME280;33123;50.118;10.272;2023-02-28T01:57:56;98627.88;;;-0.07;58.07
47374;BME280;33123;50.118;10.272;2023-02-28T02:00:25;98621.09;;;-0.08;58.65
47374;BME280;33123;50.118;10.272;2023-02-28T02:02:57;98593.50;;;-0.25;58.82
47374;BME280;33123;50.118;10.272;2023-02-28T02:05:26;98611.66;;;-0.17;58.18
47374;BME280;33123;50.118;10.272;2023-02-28T02:07:57;98577.09;;;-0.34;58.53
47374;BME280;33123;50.118;10.272;2023-02-28T02:10:30;98609.22;;;-0.18;58.99
47374;BME280;33123;50.118;10.272;2023-02-28T02:13:08;98606.47;;;-0.17;58.82
47374;BME280;33123;50.118;10.272;2023-02-28T02:15:41;98561.16;;;-0.47;58.94
47374;BME280;33123;50.118;10.272;2023-02-28T02:18:18;98609.38;;;-0.20;58.48
47374;BME280;33123;50.118;10.272;2023-02-28T02:21:07;98606.94;;;-0.21;59.26
47374;BME280;33123;50.118;10.272;2023-02-28T02:24:11;98600.63;;;-0.27;59.12
47374;BME280;33123;50.118;10.272;2023-02-28T02:26:55;98603.84;;;-0.25;58.91
47374;BME280;33123;50.118;10.272;2023-02-28T02:29:37;98603.19;;;-0.27;58.82
47374;BME280;33123;50.118;10.272;2023-02-28T02:32:39;98598.47;;;-0.32;58.47
47374;BME280;33123;50.118;10.272;2023-02-28T02:35:15;98598.63;;;-0.33;58.88
47374;BME280;33123;50.118;10.272;2023-02-28T02:37:48;98592.63;;;-0.34;59.11
47374;BME280;33123;50.118;10.272;2023-02-28T02:40:20;98599.59;;;-0.34;59.79
47374;BME280;33123;50.118;10.272;2023-02-28T02:42:51;98594.72;;;-0.37;59.73
47374;BME280;33123;50.118;10.272;2023-02-28T02:45:25;98598.13;;;-0.37;59.59
47374;BME280;33123;50.118;10.272;2023-02-28T02:47:56;98599.75;;;-0.36;59.88
47374;BME280;33123;50.118;10.272;2023-02-28T02:50:29;98597.97;;;-0.35;59.04
47374;BME280;33123;50.118;10.272;2023-02-28T02:52:59;98595.53;;;-0.37;58.71
47374;BME280;33123;50.118;10.272;2023-02-28T02:55:27;98594.72;;;-0.37;59.38
47374;BME280;33123;50.118;10.272;2023-02-28T02:57:58;98595.81;;;-0.40;59.51
47374;BME280;33123;50.118;10.272;2023-02-28T03:00:31;98602.16;;;-0.42;59.63
47374;BME280;33123;50.118;10.272;2023-02-28T03:03:01;98600.81;;;-0.46;59.63
47374;BME280;33123;50.118;10.272;2023-02-28T03:05:34;98589.13;;;-0.50;60.03
47374;BME280;33123;50.118;10.272;2023-02-28T03:08:03;98597.25;;;-0.45;59.51
47374;BME280;33123;50.118;10.272;2023-02-28T03:10:35;98595.97;;;-0.49;59.64
47374;BME280;33123;50.118;10.272;2023-02-28T03:13:25;98592.41;;;-0.48;59.68
47374;BME280;33123;50.118;10.272;2023-02-28T03:16:20;98596.25;;;-0.52;59.45
47374;BME280;33123;50.118;10.272;2023-02-28T03:18:56;98589.63;;;-0.55;59.78
47374;BME280;33123;50.118;10.272;2023-02-28T03:21:29;98604.31;;;-0.56;59.66
47374;BME280;33123;50.118;10.272;2023-02-28T03:24:04;98595.91;;;-0.58;59.26
47374;BME280;33123;50.118;10.272;2023-02-28T03:26:33;98597.69;;;-0.58;60.05
47374;BME280;33123;50.118;10.272;2023-02-28T03:29:03;98594.44;;;-0.60;59.41
47374;BME280;33123;50.118;10.272;2023-02-28T03:31:35;98597.31;;;-0.63;59.36
47374;BME280;33123;50.118;10.272;2023-02-28T03:34:06;98601.84;;;-0.65;59.60
47374;BME280;33123;50.118;10.272;2023-02-28T03:36:38;98600.34;;;-0.68;59.49
47374;BME280;33123;50.118;10.272;2023-02-28T03:39:13;98599.72;;;-0.70;59.69
47374;BME280;33123;50.118;10.272;2023-02-28T03:41:44;98598.91;;;-0.70;59.88
47374;BME280;33123;50.118;10.272;2023-02-28T03:44:19;98595.94;;;-0.75;59.47
47374;BME280;33123;50.118;10.272;2023-02-28T03:46:51;98606.31;;;-0.75;59.88
47374;BME280;33123;50.118;10.272;2023-02-28T03:49:23;98599.00;;;-0.80;59.58
47374;BME280;33123;50.118;10.272;2023-02-28T03:51:54;98596.72;;;-0.83;59.26
47374;BME280;33123;50.118;10.272;2023-02-28T03:54:25;98603.16;;;-0.87;59.32
47374;BME280;33123;50.118;10.272;2023-02-28T03:56:57;98606.19;;;-0.92;59.95
47374;BME280;33123;50.118;10.272;2023-02-28T03:59:28;98598.22;;;-0.98;59.67
47374;BME280;33123;50.118;10.272;2023-02-28T04:01:58;98610.03;;;-0.96;60.03
47374;BME280;33123;50.118;10.272;2023-02-28T04:04:25;98605.97;;;-0.98;59.92
47374;BME280;33123;50.118;10.272;2023-02-28T04:07:02;98609.00;;;-1.03;59.95
47374;BME280;33123;50.118;10.272;2023-02-28T04:09:29;98604.13;;;-1.06;60.12
47374;BME280;33123;50.118;10.272;2023-02-28T04:11:55;98607.84;;;-1.09;60.44
47374;BME280;33123;50.118;10.272;2023-02-28T04:14:22;98604.59;;;-1.11;60.48
47374;BME280;33123;50.118;10.272;2023-02-28T04:16:49;98603.41;;;-1.16;59.66
47374;BME280;33123;50.118;10.272;2023-02-28T04:19:17;98618.94;;;-1.16;59.87
47374;BME280;33123;50.118;10.272;2023-02-28T04:21:45;98617.44;;;-1.19;59.86
47374;BME280;33123;50.118;10.272;2023-02-28T04:24:14;98616.78;;;-1.21;60.30
47374;BME280;33123;50.118;10.272;2023-02-28T04:26:43;98619.66;;;-1.24;60.03
47374;BME280;33123;50.118;10.272;2023-02-28T04:29:11;98615.72;;;-1.28;59.88
47374;BME280;33123;50.118;10.272;2023-02-28T04:31:38;98614.13;;;-1.29;60.18
47374;BME280;33123;50.118;10.272;2023-02-28T04:34:05;98618.78;;;-1.33;60.33
47374;BME280;33123;50.118;10.272;2023-02-28T04:36:32;98619.22;;;-1.37;60.66
47374;BME280;33123;50.118;10.272;2023-02-28T04:38:58;98613.09;;;-1.36;60.87
47374;BME280;33123;50.118;10.272;2023-02-28T04:41:26;98619.22;;;-1.37;61.10
47374;BME280;33123;50.118;10.272;2023-02-28T04:43:53;98620.03;;;-1.37;60.45
47374;BME280;33123;50.118;10.272;2023-02-28T04:46:21;98622.78;;;-1.38;60.52
47374;BME280;33123;50.118;10.272;2023-02-28T04:48:48;98604.31;;;-1.43;60.18
47374;BME280;33123;50.118;10.272;2023-02-28T04:51:16;98613.69;;;-1.42;60.71
47374;BME280;33123;50.118;10.272;2023-02-28T04:53:44;98612.06;;;-1.43;60.33
47374;BME280;33123;50.118;10.272;2023-02-28T04:56:12;98598.59;;;-1.47;60.86
47374;BME280;33123;50.118;10.272;2023-02-28T04:58:41;98608.50;;;-1.42;60.40
47374;BME280;33123;50.118;10.272;2023-02-28T05:01:17;98606.88;;;-1.43;60.11
47374;BME280;33123;50.118;10.272;2023-02-28T05:03:44;98614.34;;;-1.40;60.71
47374;BME280;33123;50.118;10.272;2023-02-28T05:06:12;98613.38;;;-1.39;60.27
47374;BME280;33123;50.118;10.272;2023-02-28T05:08:39;98616.91;;;-1.40;60.93
47374;BME280;33123;50.118;10.272;2023-02-28T05:11:08;98614.06;;;-1.37;60.51
47374;BME280;33123;50.118;10.272;2023-02-28T05:13:38;98614.72;;;-1.35;59.89
47374;BME280;33123;50.118;10.272;2023-02-28T05:16:07;98619.59;;;-1.32;60.76
47374;BME280;33123;50.118;10.272;2023-02-28T05:18:33;98617.50;;;-1.28;60.31
47374;BME280;33123;50.118;10.272;2023-02-28T05:21:00;98614.91;;;-1.28;60.03
47374;BME280;33123;50.118;10.272;2023-02-28T05:23:27;98624.03;;;-1.24;59.45
47374;BME280;33123;50.118;10.272;2023-02-28T05:25:54;98618.41;;;-1.20;59.75
47374;BME280;33123;50.118;10.272;2023-02-28T05:28:21;98628.44;;;-1.17;59.54
47374;BME280;33123;50.118;10.272;2023-02-28T05:30:49;98623.28;;;-1.17;59.69
47374;BME280;33123;50.118;10.272;2023-02-28T05:33:17;98631.72;;;-1.15;59.28
47374;BME280;33123;50.118;10.272;2023-02-28T05:35:43;98627.19;;;-1.13;59.77
47374;BME280;33123;50.118;10.272;2023-02-28T05:38:10;98628.16;;;-1.14;58.93
47374;BME280;33123;50.118;10.272;2023-02-28T05:40:38;98632.88;;;-1.09;59.02
47374;BME280;33123;50.118;10.272;2023-02-28T05:43:05;98634.34;;;-1.07;59.53
47374;BME280;33123;50.118;10.272;2023-02-28T05:45:32;98635.97;;;-1.06;58.96
47374;BME280;33123;50.118;10.272;2023-02-28T05:47:59;98636.50;;;-1.02;58.70
47374;BME280;33123;50.118;10.272;2023-02-28T05:50:27;98640.59;;;-0.99;59.20
47374;BME280;33123;50.118;10.272;2023-02-28T05:52:53;98637.03;;;-0.98;59.02
47374;BME280;33123;50.118;10.272;2023-02-28T05:55:20;98628.94;;;-0.95;59.45
47374;BME280;33123;50.118;10.272;2023-02-28T05:57:46;98635.91;;;-0.96;58.12
47374;BME280;33123;50.118;10.272;2023-02-28T06:00:13;98636.13;;;-0.89;58.86
47374;BME280;33123;50.118;10.272;2023-02-28T06:02:43;98638.56;;;-0.88;58.11
47374;BME280;33123;50.118;10.272;2023-02-28T06:05:13;98641.53;;;-0.83;58.81
47374;BME280;33123;50.118;10.272;2023-02-28T06:07:41;98644.84;;;-0.90;58.01
47374;BME280;33123;50.118;10.272;2023-02-28T06:10:09;98647.50;;;-0.82;58.36
47374;BME280;33123;50.118;10.272;2023-02-28T06:12:36;98637.66;;;-0.78;59.02
47374;BME280;33123;50.118;10.272;2023-02-28T06:15:04;98639.50;;;-0.71;57.73
47374;BME280;33123;50.118;10.272;2023-02-28T06:17:30;98652.72;;;-0.74;58.36
47374;BME280;33123;50.118;10.272;2023-02-28T06:19:57;98653.09;;;-0.69;58.26
47374;BME280;33123;50.118;10.272;2023-02-28T06:22:24;98654.13;;;-0.62;58.49
47374;BME280;33123;50.118;10.272;2023-02-28T06:24:52;98652.84;;;-0.58;57.77
47374;BME280;33123;50.118;10.272;2023-02-28T06:27:20;98653.50;;;-0.56;58.52
47374;BME280;33123;50.118;10.272;2023-02-28T06:29:47;98649.47;;;-0.58;58.00
47374;BME280;33123;50.118;10.272;2023-02-28T06:32:13;98668.94;;;-0.46;57.32
47374;BME280;33123;50.118;10.272;2023-02-28T06:34:40;98663.47;;;-0.43;57.82
47374;BME280;33123;50.118;10.272;2023-02-28T06:37:07;98670.47;;;-0.35;57.14
47374;BME280;33123;50.118;10.272;2023-02-28T06:39:33;98671.00;;;-0.32;57.23
47374;BME280;33123;50.118;10.272;2023-02-28T06:42:02;98677.19;;;-0.24;57.65
47374;BME280;33123;50.118;10.272;2023-02-28T06:44:28;98670.59;;;-0.19;57.40
47374;BME280;33123;50.118;10.272;2023-02-28T06:47:00;98662.28;;;-0.22;57.46
47374;BME280;33123;50.118;10.272;2023-02-28T06:49:28;98678.50;;;0.06;58.98
47374;BME280;33123;50.118;10.272;2023-02-28T06:51:55;98679.25;;;0.32;57.06
47374;BME280;33123;50.118;10.272;2023-02-28T06:54:21;98683.09;;;0.70;56.87
47374;BME280;33123;50.118;10.272;2023-02-28T06:56:48;98685.59;;;1.04;54.52
47374;BME280;33123;50.118;10.272;2023-02-28T06:59:16;98694.88;;;1.40;53.62
47374;BME280;33123;50.118;10.272;2023-02-28T07:01:43;98691.13;;;1.67;53.36
47374;BME280;33123;50.118;10.272;2023-02-28T07:04:09;98693.50;;;1.93;51.81
47374;BME280;33123;50.118;10.272;2023-02-28T07:06:36;98695.19;;;2.25;51.91
47374;BME280;33123;50.118;10.272;2023-02-28T07:09:03;98693.94;;;2.52;50.49
47374;BME280;33123;50.118;10.272;2023-02-28T07:11:30;98692.31;;;2.82;49.87
47374;BME280;33123;50.118;10.272;2023-02-28T07:13:57;98683.69;;;3.12;49.11
47374;BME280;33123;50.118;10.272;2023-02-28T07:16:25;98700.69;;;3.46;48.78
47374;BME280;33123;50.118;10.272;2023-02-28T07:18:52;98694.19;;;3.80;46.87
47374;BME280;33123;50.118;10.272;2023-02-28T07:21:19;98689.19;;;4.22;46.89
47374;BME280;33123;50.118;10.272;2023-02-28T07:23:46;98695.50;;;4.64;46.22
47374;BME280;33123;50.118;10.272;2023-02-28T07:26:14;98695.81;;;4.91;44.97
47374;BME280;33123;50.118;10.272;2023-02-28T07:28:42;98692.53;;;5.25;43.83
47374;BME280;33123;50.118;10.272;2023-02-28T07:31:10;98689.91;;;5.46;44.12
47374;BME280;33123;50.118;10.272;2023-02-28T07:33:40;98697.78;;;5.74;43.22
47374;BME280;33123;50.118;10.272;2023-02-28T07:36:10;98696.22;;;6.08;43.07
47374;BME280;33123;50.118;10.272;2023-02-28T07:38:41;98696.41;;;6.41;42.23
47374;BME280;33123;50.118;10.272;2023-02-28T07:41:08;98692.47;;;6.65;41.52
47374;BME280;33123;50.118;10.272;2023-02-28T07:43:35;98691.72;;;6.78;41.67
47374;BME280;33123;50.118;10.272;2023-02-28T07:46:04;98692.34;;;6.86;40.27
47374;BME280;33123;50.118;10.272;2023-02-28T07:48:31;98695.59;;;6.95;39.97
47374;BME280;33123;50.118;10.272;2023-02-28T07:50:59;98697.88;;;7.25;40.02
47374;BME280;33123;50.118;10.272;2023-02-28T07:53:27;98697.44;;;7.14;39.39
47374;BME280;33123;50.118;10.272;2023-02-28T07:55:55;98697.88;;;7.25;39.57
47374;BME280;33123;50.118;10.272;2023-02-28T07:58:22;98702.94;;;7.39;39.78
47374;BME280;33123;50.118;10.272;2023-02-28T08:00:49;98706.75;;;7.30;39.07
47374;BME280;33123;50.118;10.272;2023-02-28T08:03:16;98706.97;;;7.49;39.36
47374;BME280;33123;50.118;10.272;2023-02-28T08:05:43;98712.19;;;7.42;39.62
47374;BME280;33123;50.118;10.272;2023-02-28T08:08:11;98714.22;;;7.40;38.98
47374;BME280;33123;50.118;10.272;2023-02-28T08:10:38;98712.59;;;7.32;39.35
47374;BME280;33123;50.118;10.272;2023-02-28T08:13:04;98702.91;;;7.26;39.46
47374;BME280;33123;50.118;10.272;2023-02-28T08:15:31;98703.75;;;7.40;39.65
47374;BME280;33123;50.118;10.272;2023-02-28T08:17:57;98694.81;;;7.21;39.12
47374;BME280;33123;50.118;10.272;2023-02-28T08:20:26;98699.84;;;7.09;38.95
47374;BME280;33123;50.118;10.272;2023-02-28T08:22:54;98710.59;;;7.41;39.42
47374;BME280;33123;50.118;10.272;2023-02-28T08:25:22;98704.16;;;7.63;38.94
47374;BME280;33123;50.118;10.272;2023-02-28T08:27:51;98675.69;;;7.74;38.66
47374;BME280;33123;50.118;10.272;2023-02-28T08:30:18;98701.13;;;7.73;37.93
47374;BME280;33123;50.118;10.272;2023-02-28T08:32:46;98696.47;;;7.88;37.47
47374;BME280;33123;50.118;10.272;2023-02-28T08:35:13;98690.44;;;7.61;38.18
47374;BME280;33123;50.118;10.272;2023-02-28T08:37:41;98689.41;;;7.49;38.94
47374;BME280;33123;50.118;10.272;2023-02-28T08:40:09;98695.06;;;7.53;38.06
47374;BME280;33123;50.118;10.272;2023-02-28T08:42:41;98694.44;;;7.64;37.96
47374;BME280;33123;50.118;10.272;2023-02-28T08:45:09;98702.50;;;7.82;38.72
47374;BME280;33123;50.118;10.272;2023-02-28T08:47:37;98662.16;;;7.77;37.82
47374;BME280;33123;50.118;10.272;2023-02-28T08:50:05;98704.03;;;8.43;37.84
47374;BME280;33123;50.118;10.272;2023-02-28T08:52:32;98701.56;;;8.61;36.14
47374;BME280;33123;50.118;10.272;2023-02-28T08:54:59;98703.47;;;8.86;35.63
47374;BME280;33123;50.118;10.272;2023-02-28T08:57:26;98702.88;;;9.22;35.79
47374;BME280;33123;50.118;10.272;2023-02-28T08:59:54;98697.84;;;9.45;34.90
47374;BME280;33123;50.118;10.272;2023-02-28T09:02:21;98709.13;;;8.89;34.12
47374;BME280;33123;50.118;10.272;2023-02-28T09:04:48;98696.63;;;8.85;35.12
47374;BME280;33123;50.118;10.272;2023-02-28T09:07:15;98688.94;;;8.83;34.77
47374;BME280;33123;50.118;10.272;2023-02-28T09:09:43;98692.13;;;8.92;35.30
47374;BME280;33123;50.118;10.272;2023-02-28T09:12:20;98677.84;;;9.13;35.86
47374;BME280;33123;50.118;10.272;2023-02-28T09:14:46;98684.59;;;9.27;34.83
47374;BME280;33123;50.118;10.272;2023-02-28T09:17:14;98684.38;;;9.60;34.37
47374;BME280;33123;50.118;10.272;2023-02-28T09:19:41;98688.03;;;9.34;33.35
47374;BME280;33123;50.118;10.272;2023-02-28T09:22:08;98681.84;;;9.22;34.46
47374;BME280;33123;50.118;10.272;2023-02-28T09:24:35;98690.66;;;9.03;34.45
47374;BME280;33123;50.118;10.272;2023-02-28T09:27:02;98683.38;;;8.60;34.42
47374;BME280;33123;50.118;10.272;2023-02-28T09:29:28;98687.03;;;8.52;34.81
47374;BME280;33123;50.118;10.272;2023-02-28T09:31:55;98687.91;;;8.39;34.30
47374;BME280;33123;50.118;10.272;2023-02-28T09:34:25;98683.19;;;8.55;34.54
47374;BME280;33123;50.118;10.272;2023-02-28T09:36:52;98686.53;;;8.75;34.96
47374;BME280;33123;50.118;10.272;2023-02-28T09:39:20;98686.53;;;8.75;33.20
47374;BME280;33123;50.118;10.272;2023-02-28T09:41:48;98687.59;;;9.37;33.14
47374;BME280;33123;50.118;10.272;2023-02-28T09:44:20;98669.44;;;9.54;32.96
47374;BME280;33123;50.118;10.272;2023-02-28T09:46:51;98687.13;;;9.72;32.04
47374;BME280;33123;50.118;10.272;2023-02-28T09:49:25;98694.03;;;9.91;31.87
47374;BME280;33123;50.118;10.272;2023-02-28T09:51:58;98689.00;;;10.33;30.88
47374;BME280;33123;50.118;10.272;2023-02-28T09:54:29;98687.88;;;10.59;30.89
47374;BME280;33123;50.118;10.272;2023-02-28T09:56:59;98602.69;;;10.28;30.13
47374;BME280;33123;50.118;10.272;2023-02-28T09:59:39;98694.94;;;10.77;29.84
47374;BME280;33123;50.118;10.272;2023-02-28T10:02:19;98689.22;;;10.50;30.47
47374;BME280;33123;50.118;10.272;2023-02-28T10:04:52;98695.41;;;10.37;29.75
47374;BME280;33123;50.118;10.272;2023-02-28T10:07:37;98689.97;;;10.69;29.35
47374;BME280;33123;50.118;10.272;2023-02-28T10:10:19;98687.13;;;10.70;29.34
47374;BME280;33123;50.118;10.272;2023-02-28T10:12:48;98676.13;;;10.18;29.40
47374;BME280;33123;50.118;10.272;2023-02-28T10:15:17;98663.31;;;9.85;29.09
47374;BME280;33123;50.118;10.272;2023-02-28T10:17:47;98686.13;;;9.91;29.45
47374;BME280;33123;50.118;10.272;2023-02-28T10:20:20;98698.41;;;9.79;29.65
47374;BME280;33123;50.118;10.272;2023-02-28T10:22:58;98701.50;;;9.44;29.65
47374;BME280;33123;50.118;10.272;2023-02-28T10:25:33;98692.47;;;9.59;30.22
47374;BME280;33123;50.118;10.272;2023-02-28T10:28:08;98680.03;;;9.47;30.43
47374;BME280;33123;50.118;10.272;2023-02-28T10:30:38;98665.59;;;8.93;30.08
47374;BME280;33123;50.118;10.272;2023-02-28T10:33:17;98706.72;;;8.81;30.55
47374;BME280;33123;50.118;10.272;2023-02-28T10:35:46;98705.09;;;8.22;31.48
47374;BME280;33123;50.118;10.272;2023-02-28T10:38:17;98702.53;;;7.89;32.63
47374;BME280;33123;50.118;10.272;2023-02-28T10:40:44;98707.75;;;7.29;32.88
47374;BME280;33123;50.118;10.272;2023-02-28T10:43:22;98701.63;;;6.96;33.64
47374;BME280;33123;50.118;10.272;2023-02-28T10:45:56;98690.81;;;6.51;34.03
47374;BME280;33123;50.118;10.272;2023-02-28T10:48:30;98681.41;;;5.94;34.60
47374;BME280;33123;50.118;10.272;2023-02-28T10:50:59;98701.16;;;6.24;35.22
47374;BME280;33123;50.118;10.272;2023-02-28T10:53:35;98696.97;;;6.37;35.92
47374;BME280;33123;50.118;10.272;2023-02-28T10:56:05;98689.69;;;6.32;35.71
47374;BME280;33123;50.118;10.272;2023-02-28T10:58:46;98680.50;;;6.49;36.61
47374;BME280;33123;50.118;10.272;2023-02-28T11:01:15;98697.59;;;6.93;35.85
47374;BME280;33123;50.118;10.272;2023-02-28T11:03:43;98643.72;;;6.71;34.97
47374;BME280;33123;50.118;10.272;2023-02-28T11:06:17;98639.53;;;6.90;34.92
47374;BME280;33123;50.118;10.272;2023-02-28T11:08:50;98687.16;;;7.13;34.65
47374;BME280;33123;50.118;10.272;2023-02-28T11:11:18;98674.25;;;7.18;35.81
47374;BME280;33123;50.118;10.272;2023-02-28T11:13:46;98678.94;;;7.62;34.86
47374;BME280;33123;50.118;10.272;2023-02-28T11:16:15;98674.25;;;7.84;34.01
47374;BME280;33123;50.118;10.272;2023-02-28T11:18:46;98660.31;;;7.90;33.76
47374;BME280;33123;50.118;10.272;2023-02-28T11:21:22;98671.84;;;7.89;34.34
47374;BME280;33123;50.118;10.272;2023-02-28T11:23:52;98633.09;;;7.65;33.73
47374;BME280;33123;50.118;10.272;2023-02-28T11:26:39;98667.19;;;7.85;34.89
47374;BME280;33123;50.118;10.272;2023-02-28T11:29:18;98679.91;;;7.94;33.57
47374;BME280;33123;50.118;10.272;2023-02-28T11:32:01;98676.69;;;7.46;33.66
47374;BME280;33123;50.118;10.272;2023-02-28T11:34:29;98676.69;;;7.53;32.96
47374;BME280;33123;50.118;10.272;2023-02-28T11:36:59;98662.16;;;7.44;33.25
47374;BME280;33123;50.118;10.272;2023-02-28T11:39:26;98660.72;;;7.87;34.33
47374;BME280;33123;50.118;10.272;2023-02-28T11:42:24;98659.69;;;8.02;32.52
47374;BME280;33123;50.118;10.272;2023-02-28T11:45:13;98668.44;;;8.54;32.22
47374;BME280;33123;50.118;10.272;2023-02-28T11:47:47;98647.56;;;9.04;31.92
47374;BME280;33123;50.118;10.272;2023-02-28T11:50:22;98656.13;;;9.74;31.23
47374;BME280;33123;50.118;10.272;2023-02-28T11:52:56;98657.78;;;9.68;30.55
47374;BME280;33123;50.118;10.272;2023-02-28T11:55:25;98660.38;;;9.93;30.29
47374;BME280;33123;50.118;10.272;2023-02-28T11:58:14;98650.38;;;10.20;29.59
47374;BME280;33123;50.118;10.272;2023-02-28T12:00:56;98655.81;;;10.25;29.62
47374;BME280;33123;50.118;10.272;2023-02-28T12:03:31;98646.47;;;10.29;29.56
47374;BME280;33123;50.118;10.272;2023-02-28T12:06:13;98661.00;;;10.32;29.24
47374;BME280;33123;50.118;10.272;2023-02-28T12:09:04;98640.59;;;10.46;29.96
47374;BME280;33123;50.118;10.272;2023-02-28T12:11:40;98655.81;;;10.62;28.97
47374;BME280;33123;50.118;10.272;2023-02-28T12:14:25;98653.19;;;10.44;30.01
47374;BME280;33123;50.118;10.272;2023-02-28T12:17:05;98642.72;;;10.37;28.80
47374;BME280;33123;50.118;10.272;2023-02-28T12:19:43;98651.47;;;10.68;29.16
47374;BME280;33123;50.118;10.272;2023-02-28T12:22:27;98643.72;;;10.54;28.58
47374;BME280;33123;50.118;10.272;2023-02-28T12:25:18;98648.97;;;10.73;30.30
47374;BME280;33123;50.118;10.272;2023-02-28T12:27:48;98649.78;;;10.73;29.33
47374;BME280;33123;50.118;10.272;2023-02-28T12:30:18;98647.94;;;10.74;28.82
47374;BME280;33123;50.118;10.272;2023-02-28T12:32:48;98637.28;;;10.32;28.89
47374;BME280;33123;50.118;10.272;2023-02-28T12:35:21;98630.00;;;10.34;30.36
47374;BME280;33123;50.118;10.272;2023-02-28T12:37:54;98634.38;;;10.22;30.95
47374;BME280;33123;50.118;10.272;2023-02-28T12:40:25;98639.53;;;9.92;29.46
47374;BME280;33123;50.118;10.272;2023-02-28T12:42:56;98630.56;;;10.18;30.46
47374;BME280;33123;50.118;10.272;2023-02-28T12:45:27;98622.19;;;10.21;29.43
47374;BME280;33123;50.118;10.272;2023-02-28T12:48:00;98624.41;;;10.05;29.63
47374;BME280;33123;50.118;10.272;2023-02-28T12:50:29;98624.25;;;10.00;30.62
47374;BME280;33123;50.118;10.272;2023-02-28T12:53:00;98600.47;;;9.70;31.46
47374;BME280;33123;50.118;10.272;2023-02-28T12:55:36;98626.84;;;9.64;30.86
47374;BME280;33123;50.118;10.272;2023-02-28T12:58:11;98630.31;;;9.39;30.53
47374;BME280;33123;50.118;10.272;2023-02-28T13:01:02;98632.16;;;9.07;30.66
47374;BME280;33123;50.118;10.272;2023-02-28T13:03:45;98617.03;;;9.03;31.10
47374;BME280;33123;50.118;10.272;2023-02-28T13:06:26;98616.34;;;9.14;31.41
47374;BME280;33123;50.118;10.272;2023-02-28T13:09:04;98628.72;;;8.75;31.14
47374;BME280;33123;50.118;10.272;2023-02-28T13:11:39;98622.03;;;8.79;32.61
47374;BME280;33123;50.118;10.272;2023-02-28T13:14:19;98627.75;;;8.69;32.33